sensor_id;sensor_type;location;lat;lon;timestamp;pressure;altitude;pressure_sealevel;temperature;humidity
72525;BME280;60547;48.502;8.996;2023-04-25T00:02:05;97325.03;;;7.78;80.39
72525;BME280;60547;48.502;8.996;2023-04-25T00:04:32;97331.97;;;7.86;81.38
72525;BME280;60547;48.502;8.996;2023-04-25T00:06:59;97324.50;;;7.83;80.44
72525;BME280;60547;48.502;8.996;2023-04-25T00:09:27;97330.56;;;7.94;80.04
72525;BME280;60547;48.502;8.996;2023-04-25T00:11:52;97316.63;;;7.98;80.25
72525;BME280;60547;48.502;8.996;2023-04-25T00:14:18;97328.75;;;8.04;81.02
72525;BME280;60547;48.502;8.996;2023-04-25T00:16:44;97318.72;;;7.94;80.66
72525;BME280;60547;48.502;8.996;2023-04-25T00:19:09;97320.09;;;7.86;81.09
72525;BME280;60547;48.502;8.996;2023-04-25T00:21:35;97327.53;;;7.89;80.97
72525;BME280;60547;48.502;8.996;2023-04-25T00:24:03;97321.47;;;7.77;81.25
72525;BME280;60547;48.502;8.996;2023-04-25T00:26:28;97323.03;;;7.78;82.48
72525;BME280;60547;48.502;8.996;2023-04-25T00:28:54;97316.47;;;7.72;82.00
72525;BME280;60547;48.502;8.996;2023-04-25T00:31:19;97320.00;;;7.73;81.22
72525;BME280;60547;48.502;8.996;2023-04-25T00:33:45;97323.91;;;7.75;81.70
72525;BME280;60547;48.502;8.996;2023-04-25T00:36:10;97323.13;;;7.75;81.92
72525;BME280;60547;48.502;8.996;2023-04-25T00:38:36;97321.03;;;7.79;81.85
72525;BME280;60547;48.502;8.996;2023-04-25T00:41:05;97317.84;;;7.81;81.57
72525;BME280;60547;48.502;8.996;2023-04-25T00:43:32;97316.72;;;7.78;81.15
72525;BME280;60547;48.502;8.996;2023-04-25T00:45:59;97309.72;;;7.73;81.20
72525;BME280;60547;48.502;8.996;2023-04-25T00:48:25;97309.19;;;7.78;80.70
72525;BME280;60547;48.502;8.996;2023-04-25T00:50:53;97313.09;;;7.81;80.85
72525;BME280;60547;48.502;8.996;2023-04-25T00:53:22;97307.13;;;7.83;79.90
72525;BME280;60547;48.502;8.996;2023-04-25T00:55:48;97290.75;;;7.72;80.17
72525;BME280;60547;48.502;8.996;2023-04-25T00:58:20;97306.69;;;7.84;80.46
72525;BME280;60547;48.502;8.996;2023-04-25T01:00:47;97311.00;;;7.85;80.32
72525;BME280;60547;48.502;8.996;2023-04-25T01:03:14;97298.63;;;7.73;79.75
72525;BME280;60547;48.502;8.996;2023-04-25T01:05:42;97296.13;;;7.79;80.28
72525;BME280;60547;48.502;8.996;2023-04-25T01:08:08;97284.34;;;7.75;80.49
72525;BME280;60547;48.502;8.996;2023-04-25T01:10:34;97284.19;;;7.82;80.92
72525;BME280;60547;48.502;8.996;2023-04-25T01:13:00;97282.19;;;7.83;81.10
72525;BME280;60547;48.502;8.996;2023-04-25T01:15:25;97285.91;;;7.76;81.54
72525;BME280;60547;48.502;8.996;2023-04-25T01:17:51;97290.25;;;7.77;81.30
72525;BME280;60547;48.502;8.996;2023-04-25T01:20:16;97290.69;;;7.75;81.39
72525;BME280;60547;48.502;8.996;2023-04-25T01:22:43;97282.09;;;7.70;82.25
72525;BME280;60547;48.502;8.996;2023-04-25T01:25:08;97284.34;;;7.75;82.59
72525;BME280;60547;48.502;8.996;2023-04-25T01:27:36;97284.34;;;7.75;83.06
72525;BME280;60547;48.502;8.996;2023-04-25T01:30:03;97276.56;;;7.70;83.82
72525;BME280;60547;48.502;8.996;2023-04-25T01:32:29;97286.59;;;7.80;83.65
72525;BME280;60547;48.502;8.996;2023-04-25T01:35:04;97289.03;;;7.78;83.18
72525;BME280;60547;48.502;8.996;2023-04-25T01:37:38;97288.00;;;7.72;83.63
72525;BME280;60547;48.502;8.996;2023-04-25T01:40:05;97276.66;;;7.66;83.65
72525;BME280;60547;48.502;8.996;2023-04-25T01:42:32;97272.75;;;7.64;83.87
72525;BME280;60547;48.502;8.996;2023-04-25T01:44:58;97292.22;;;7.76;83.34
72525;BME280;60547;48.502;8.996;2023-04-25T01:47:23;97294.56;;;7.78;82.97
72525;BME280;60547;48.502;8.996;2023-04-25T01:49:49;97285.03;;;7.79;82.94
72525;BME280;60547;48.502;8.996;2023-04-25T01:52:15;97281.16;;;7.76;82.73
72525;BME280;60547;48.502;8.996;2023-04-25T01:54:41;97283.50;;;7.78;83.44
72525;BME280;60547;48.502;8.996;2023-04-25T01:57:12;97289.03;;;7.78;83.79
72525;BME280;60547;48.502;8.996;2023-04-25T01:59:37;97297.69;;;7.80;83.27
72525;BME280;60547;48.502;8.996;2023-04-25T02:02:03;97283.50;;;7.78;82.50
72525;BME280;60547;48.502;8.996;2023-04-25T02:04:30;97278.81;;;7.75;83.39
72525;BME280;60547;48.502;8.996;2023-04-25T02:06:55;97276.75;;;7.79;82.75
72525;BME280;60547;48.502;8.996;2023-04-25T02:09:21;97269.47;;;7.69;84.01
72525;BME280;60547;48.502;8.996;2023-04-25T02:11:47;97264.09;;;7.62;84.16
72525;BME280;60547;48.502;8.996;2023-04-25T02:14:12;97245.06;;;7.48;84.16
72525;BME280;60547;48.502;8.996;2023-04-25T02:16:38;97279.25;;;7.57;83.97
72525;BME280;60547;48.502;8.996;2023-04-25T02:19:04;97261.25;;;7.49;82.47
72525;BME280;60547;48.502;8.996;2023-04-25T02:21:30;97276.91;;;7.56;81.79
72525;BME280;60547;48.502;8.996;2023-04-25T02:23:56;97256.56;;;7.46;82.51
72525;BME280;60547;48.502;8.996;2023-04-25T02:26:21;97252.84;;;7.36;83.85
72525;BME280;60547;48.502;8.996;2023-04-25T02:28:49;97263.91;;;7.36;83.38
72525;BME280;60547;48.502;8.996;2023-04-25T02:31:15;97268.75;;;7.32;83.55
72525;BME280;60547;48.502;8.996;2023-04-25T02:33:41;97279.81;;;7.32;83.82
72525;BME280;60547;48.502;8.996;2023-04-25T02:36:07;97266.50;;;7.27;84.32
72525;BME280;60547;48.502;8.996;2023-04-25T02:38:33;97265.88;;;7.20;84.99
72525;BME280;60547;48.502;8.996;2023-04-25T02:40:58;97259.22;;;7.17;85.23
72525;BME280;60547;48.502;8.996;2023-04-25T02:43:24;97259.03;;;7.08;85.26
72525;BME280;60547;48.502;8.996;2023-04-25T02:45:49;97275.63;;;7.08;85.36
72525;BME280;60547;48.502;8.996;2023-04-25T02:48:15;97264.81;;;6.97;85.17
72525;BME280;60547;48.502;8.996;2023-04-25T02:50:40;97255.81;;;6.73;85.24
72525;BME280;60547;48.502;8.996;2023-04-25T02:53:05;97273.81;;;6.82;85.54
72525;BME280;60547;48.502;8.996;2023-04-25T02:55:31;97255.13;;;6.69;85.94
72525;BME280;60547;48.502;8.996;2023-04-25T02:57:56;97273.03;;;6.81;86.36
72525;BME280;60547;48.502;8.996;2023-04-25T03:00:22;97269.16;;;6.78;86.56
72525;BME280;60547;48.502;8.996;2023-04-25T03:02:48;97258.16;;;6.75;87.07
72525;BME280;60547;48.502;8.996;2023-04-25T03:05:13;97243.72;;;6.67;87.42
72525;BME280;60547;48.502;8.996;2023-04-25T03:07:39;97257.75;;;6.76;87.12
72525;BME280;60547;48.502;8.996;2023-04-25T03:10:08;97256.88;;;6.79;87.12
72525;BME280;60547;48.502;8.996;2023-04-25T03:12:33;97248.16;;;6.81;87.24
72525;BME280;60547;48.502;8.996;2023-04-25T03:14:59;97249.44;;;6.76;87.24
72525;BME280;60547;48.502;8.996;2023-04-25T03:17:24;97239.25;;;6.73;87.34
72525;BME280;60547;48.502;8.996;2023-04-25T03:19:50;97245.25;;;6.88;87.26
72525;BME280;60547;48.502;8.996;2023-04-25T03:22:17;97226.47;;;6.79;87.21
72525;BME280;60547;48.502;8.996;2023-04-25T03:24:43;97228.72;;;6.85;87.48
72525;BME280;60547;48.502;8.996;2023-04-25T03:27:08;97248.28;;;6.94;87.68
72525;BME280;60547;48.502;8.996;2023-04-25T03:29:34;97238.06;;;6.91;86.51
72525;BME280;60547;48.502;8.996;2023-04-25T03:31:59;97230.63;;;6.88;86.03
72525;BME280;60547;48.502;8.996;2023-04-25T03:34:25;97224.75;;;6.86;85.88
72525;BME280;60547;48.502;8.996;2023-04-25T03:36:51;97239.28;;;6.90;85.33
72525;BME280;60547;48.502;8.996;2023-04-25T03:39:16;97223.19;;;6.85;85.28
72525;BME280;60547;48.502;8.996;2023-04-25T03:41:42;97234.63;;;6.87;84.91
72525;BME280;60547;48.502;8.996;2023-04-25T03:44:07;97230.44;;;6.78;84.98
72525;BME280;60547;48.502;8.996;2023-04-25T03:46:36;97241.50;;;6.78;85.51
72525;BME280;60547;48.502;8.996;2023-04-25T03:49:01;97236.81;;;6.75;86.22
72525;BME280;60547;48.502;8.996;2023-04-25T03:51:27;97240.78;;;6.74;86.61
72525;BME280;60547;48.502;8.996;2023-04-25T03:53:53;97236.97;;;6.68;86.63
72525;BME280;60547;48.502;8.996;2023-04-25T03:56:18;97240.09;;;6.70;86.03
72525;BME280;60547;48.502;8.996;2023-04-25T03:58:44;97234.09;;;6.56;85.44
72525;BME280;60547;48.502;8.996;2023-04-25T04:01:09;97233.09;;;6.66;86.23
72525;BME280;60547;48.502;8.996;2023-04-25T04:03:35;97237.84;;;6.65;86.05
72525;BME280;60547;48.502;8.996;2023-04-25T04:06:05;97231.44;;;6.68;86.38
72525;BME280;60547;48.502;8.996;2023-04-25T04:08:32;97227.28;;;6.60;85.07
72525;BME280;60547;48.502;8.996;2023-04-25T04:10:58;97247.69;;;6.66;85.28
72525;BME280;60547;48.502;8.996;2023-04-25T04:13:25;97237.91;;;6.62;86.13
72525;BME280;60547;48.502;8.996;2023-04-25T04:15:51;97243.78;;;6.64;85.97
72525;BME280;60547;48.502;8.996;2023-04-25T04:18:16;97241.94;;;6.57;86.49
72525;BME280;60547;48.502;8.996;2023-04-25T04:20:42;97230.19;;;6.53;86.27
72525;BME280;60547;48.502;8.996;2023-04-25T04:23:07;97228.56;;;6.56;86.07
72525;BME280;60547;48.502;8.996;2023-04-25T04:25:33;97232.19;;;6.53;85.99
72525;BME280;60547;48.502;8.996;2023-04-25T04:27:59;97234.59;;;6.51;86.19
72525;BME280;60547;48.502;8.996;2023-04-25T04:30:26;97231.13;;;6.46;85.27
72525;BME280;60547;48.502;8.996;2023-04-25T04:32:57;97242.94;;;6.47;84.87
72525;BME280;60547;48.502;8.996;2023-04-25T04:35:23;97248.47;;;6.47;85.53
72525;BME280;60547;48.502;8.996;2023-04-25T04:37:49;97251.66;;;6.45;85.71
72525;BME280;60547;48.502;8.996;2023-04-25T04:40:16;97256.97;;;6.56;85.34
72525;BME280;60547;48.502;8.996;2023-04-25T04:42:42;97235.84;;;6.46;85.48
72525;BME280;60547;48.502;8.996;2023-04-25T04:45:09;97252.66;;;6.55;85.69
72525;BME280;60547;48.502;8.996;2023-04-25T04:47:35;97251.81;;;6.58;86.54
72525;BME280;60547;48.502;8.996;2023-04-25T04:50:03;97261.16;;;6.64;86.47
72525;BME280;60547;48.502;8.996;2023-04-25T04:52:29;97256.47;;;6.61;86.60
72525;BME280;60547;48.502;8.996;2023-04-25T04:54:55;97259.94;;;6.65;86.37
72525;BME280;60547;48.502;8.996;2023-04-25T04:57:21;97273.13;;;6.77;85.99
72525;BME280;60547;48.502;8.996;2023-04-25T04:59:47;97274.53;;;6.86;84.86
72525;BME280;60547;48.502;8.996;2023-04-25T05:02:12;97267.09;;;6.83;84.49
72525;BME280;60547;48.502;8.996;2023-04-25T05:04:38;97281.63;;;6.87;84.83
72525;BME280;60547;48.502;8.996;2023-04-25T05:07:03;97282.31;;;6.91;85.03
72525;BME280;60547;48.502;8.996;2023-04-25T05:09:29;97274.66;;;6.98;84.94
72525;BME280;60547;48.502;8.996;2023-04-25T05:11:54;97272.66;;;6.99;84.45
72525;BME280;60547;48.502;8.996;2023-04-25T05:14:20;97267.06;;;7.02;83.88
72525;BME280;60547;48.502;8.996;2023-04-25T05:16:47;97268.28;;;7.01;84.42
72525;BME280;60547;48.502;8.996;2023-04-25T05:19:12;97261.59;;;6.99;85.00
72525;BME280;60547;48.502;8.996;2023-04-25T05:21:38;97261.03;;;7.07;85.67
72525;BME280;60547;48.502;8.996;2023-04-25T05:24:04;97251.78;;;7.14;85.79
72525;BME280;60547;48.502;8.996;2023-04-25T05:26:29;97254.38;;;7.21;84.93
72525;BME280;60547;48.502;8.996;2023-04-25T05:28:59;97253.19;;;7.22;85.76
72525;BME280;60547;48.502;8.996;2023-04-25T05:31:25;97237.94;;;7.14;86.01
72525;BME280;60547;48.502;8.996;2023-04-25T05:33:51;97244.53;;;7.20;85.56
72525;BME280;60547;48.502;8.996;2023-04-25T05:36:18;97251.47;;;7.28;85.20
72525;BME280;60547;48.502;8.996;2023-04-25T05:38:44;97251.28;;;7.35;83.85
72525;BME280;60547;48.502;8.996;2023-04-25T05:41:09;97255.97;;;7.38;84.13
72525;BME280;60547;48.502;8.996;2023-04-25T05:43:35;97245.75;;;7.35;82.90
72525;BME280;60547;48.502;8.996;2023-04-25T05:46:00;97256.56;;;7.46;82.74
72525;BME280;60547;48.502;8.996;2023-04-25T05:48:26;97256.50;;;7.50;81.21
72525;BME280;60547;48.502;8.996;2023-04-25T05:50:51;97259.53;;;7.55;80.23
72525;BME280;60547;48.502;8.996;2023-04-25T05:53:18;97265.13;;;7.52;79.94
72525;BME280;60547;48.502;8.996;2023-04-25T05:55:43;97253.91;;;7.59;79.73
72525;BME280;60547;48.502;8.996;2023-04-25T05:58:09;97246.81;;;7.58;80.57
72525;BME280;60547;48.502;8.996;2023-04-25T06:00:34;97244.38;;;7.60;80.90
72525;BME280;60547;48.502;8.996;2023-04-25T06:03:00;97254.59;;;7.63;80.92
72525;BME280;60547;48.502;8.996;2023-04-25T06:05:26;97250.88;;;7.69;81.12
72525;BME280;60547;48.502;8.996;2023-04-25T06:07:52;97241.97;;;7.62;81.21
72525;BME280;60547;48.502;8.996;2023-04-25T06:10:17;97256.84;;;7.68;79.82
72525;BME280;60547;48.502;8.996;2023-04-25T06:12:43;97272.25;;;7.69;79.42
72525;BME280;60547;48.502;8.996;2023-04-25T06:15:09;97259.88;;;7.73;80.11
72525;BME280;60547;48.502;8.996;2023-04-25T06:17:35;97264.88;;;7.78;79.88
72525;BME280;60547;48.502;8.996;2023-04-25T06:20:01;97262.88;;;7.79;80.16
72525;BME280;60547;48.502;8.996;2023-04-25T06:22:27;97271.63;;;7.77;80.91
72525;BME280;60547;48.502;8.996;2023-04-25T06:24:52;97258.41;;;7.69;81.41
72525;BME280;60547;48.502;8.996;2023-04-25T06:27:18;97261.34;;;7.78;81.08
72525;BME280;60547;48.502;8.996;2023-04-25T06:29:43;97261.69;;;7.80;80.45
72525;BME280;60547;48.502;8.996;2023-04-25T06:32:09;97260.91;;;7.80;80.48
72525;BME280;60547;48.502;8.996;2023-04-25T06:34:34;97266.34;;;7.83;79.91
72525;BME280;60547;48.502;8.996;2023-04-25T06:37:00;97266.88;;;7.78;80.44
72525;BME280;60547;48.502;8.996;2023-04-25T06:39:25;97269.28;;;7.76;80.41
72525;BME280;60547;48.502;8.996;2023-04-25T06:41:51;97269.28;;;7.76;80.89
72525;BME280;60547;48.502;8.996;2023-04-25T06:44:16;97251.66;;;7.70;80.73
72525;BME280;60547;48.502;8.996;2023-04-25T06:46:42;97252.00;;;7.72;80.65
72525;BME280;60547;48.502;8.996;2023-04-25T06:49:07;97262.88;;;7.79;80.61
72525;BME280;60547;48.502;8.996;2023-04-25T06:51:33;97260.66;;;7.74;80.59
72525;BME280;60547;48.502;8.996;2023-04-25T06:53:58;97254.25;;;7.77;81.17
72525;BME280;60547;48.502;8.996;2023-04-25T06:56:24;97252.69;;;7.76;81.36
72525;BME280;60547;48.502;8.996;2023-04-25T06:58:49;97264.09;;;7.78;82.01
72525;BME280;60547;48.502;8.996;2023-04-25T07:01:15;97259.94;;;7.70;82.73
72525;BME280;60547;48.502;8.996;2023-04-25T07:03:42;97269.38;;;7.72;83.69
72525;BME280;60547;48.502;8.996;2023-04-25T07:06:08;97261.94;;;7.69;84.56
72525;BME280;60547;48.502;8.996;2023-04-25T07:08:33;97269.38;;;7.72;85.23
72525;BME280;60547;48.502;8.996;2023-04-25T07:10:59;97266.69;;;7.69;85.08
72525;BME280;60547;48.502;8.996;2023-04-25T07:13:24;97259.59;;;7.68;85.53
72525;BME280;60547;48.502;8.996;2023-04-25T07:15:50;97274.56;;;7.70;84.99
72525;BME280;60547;48.502;8.996;2023-04-25T07:18:15;97275.69;;;7.73;84.82
72525;BME280;60547;48.502;8.996;2023-04-25T07:20:41;97262.91;;;7.63;84.59
72525;BME280;60547;48.502;8.996;2023-04-25T07:23:06;97266.00;;;7.65;85.01
72525;BME280;60547;48.502;8.996;2023-04-25T07:25:32;97272.66;;;7.67;85.77
72525;BME280;60547;48.502;8.996;2023-04-25T07:27:57;97265.22;;;7.64;85.28
72525;BME280;60547;48.502;8.996;2023-04-25T07:30:23;97268.88;;;7.61;85.04
72525;BME280;60547;48.502;8.996;2023-04-25T07:32:49;97274.31;;;7.65;84.70
72525;BME280;60547;48.502;8.996;2023-04-25T07:35:16;97285.03;;;7.63;84.61
72525;BME280;60547;48.502;8.996;2023-04-25T07:37:41;97278.56;;;7.53;84.71
72525;BME280;60547;48.502;8.996;2023-04-25T07:40:07;97268.25;;;7.54;84.94
72525;BME280;60547;48.502;8.996;2023-04-25T07:42:34;97285.13;;;7.59;84.75
72525;BME280;60547;48.502;8.996;2023-04-25T07:45:00;97286.69;;;7.60;84.22
72525;BME280;60547;48.502;8.996;2023-04-25T07:47:26;97283.84;;;7.64;85.23
72525;BME280;60547;48.502;8.996;2023-04-25T07:49:52;97292.56;;;7.62;85.91
72525;BME280;60547;48.502;8.996;2023-04-25T07:52:17;97299.59;;;7.67;85.55
72525;BME280;60547;48.502;8.996;2023-04-25T07:54:43;97287.72;;;7.66;84.97
72525;BME280;60547;48.502;8.996;2023-04-25T07:57:08;97297.16;;;7.69;84.61
72525;BME280;60547;48.502;8.996;2023-04-25T07:59:34;97305.03;;;7.70;84.24
72525;BME280;60547;48.502;8.996;2023-04-25T08:02:00;97308.16;;;7.72;85.28
72525;BME280;60547;48.502;8.996;2023-04-25T08:04:26;97325.03;;;7.78;85.27
72525;BME280;60547;48.502;8.996;2023-04-25T08:06:52;97314.56;;;7.69;85.27
72525;BME280;60547;48.502;8.996;2023-04-25T08:09:19;97319.91;;;7.76;85.38
72525;BME280;60547;48.502;8.996;2023-04-25T08:11:45;97317.84;;;7.64;86.07
72525;BME280;60547;48.502;8.996;2023-04-25T08:14:11;97334.38;;;7.68;85.72
72525;BME280;60547;48.502;8.996;2023-04-25T08:16:37;97337.47;;;7.70;86.07
72525;BME280;60547;48.502;8.996;2023-04-25T08:19:03;97325.88;;;7.59;87.18
72525;BME280;60547;48.502;8.996;2023-04-25T08:21:28;97345.44;;;7.68;87.25
72525;BME280;60547;48.502;8.996;2023-04-25T08:23:54;97338.69;;;7.53;88.43
72525;BME280;60547;48.502;8.996;2023-04-25T08:26:19;97355.91;;;7.60;88.49
72525;BME280;60547;48.502;8.996;2023-04-25T08:28:46;97356.69;;;7.61;89.55
72525;BME280;60547;48.502;8.996;2023-04-25T08:31:11;97372.44;;;7.64;89.55
72525;BME280;60547;48.502;8.996;2023-04-25T08:33:37;97375.56;;;7.66;88.72
72525;BME280;60547;48.502;8.996;2023-04-25T08:36:02;97373.09;;;7.52;89.58
72525;BME280;60547;48.502;8.996;2023-04-25T08:38:28;97360.13;;;7.49;88.98
72525;BME280;60547;48.502;8.996;2023-04-25T08:40:54;97386.94;;;7.52;88.17
72525;BME280;60547;48.502;8.996;2023-04-25T08:43:20;97388.31;;;7.43;86.74
72525;BME280;60547;48.502;8.996;2023-04-25T08:45:46;97398.47;;;7.30;86.99
72525;BME280;60547;48.502;8.996;2023-04-25T08:48:14;97395.22;;;7.16;88.41
72525;BME280;60547;48.502;8.996;2023-04-25T08:50:50;97404.06;;;7.27;88.29
72525;BME280;60547;48.502;8.996;2023-04-25T08:53:16;97410.41;;;7.27;87.81
72525;BME280;60547;48.502;8.996;2023-04-25T08:55:46;97412.66;;;7.32;87.86
72525;BME280;60547;48.502;8.996;2023-04-25T08:58:12;97398.91;;;7.09;86.67
72525;BME280;60547;48.502;8.996;2023-04-25T09:00:38;97425.09;;;7.04;89.16
72525;BME280;60547;48.502;8.996;2023-04-25T09:03:05;97415.59;;;6.62;88.95
72525;BME280;60547;48.502;8.996;2023-04-25T09:05:32;97420.47;;;6.55;89.42
72525;BME280;60547;48.502;8.996;2023-04-25T09:07:58;97434.94;;;6.39;90.68
72525;BME280;60547;48.502;8.996;2023-04-25T09:10:24;97449.59;;;6.59;90.79
72525;BME280;60547;48.502;8.996;2023-04-25T09:13:10;97439.09;;;6.51;90.21
72525;BME280;60547;48.502;8.996;2023-04-25T09:15:53;97457.72;;;6.46;88.92
72525;BME280;60547;48.502;8.996;2023-04-25T09:20:53;97465.94;;;6.27;89.39
72525;BME280;60547;48.502;8.996;2023-04-25T09:23:20;97457.81;;;6.16;89.13
72525;BME280;60547;48.502;8.996;2023-04-25T09:25:51;97469.91;;;6.26;87.99
72525;BME280;60547;48.502;8.996;2023-04-25T09:28:23;97480.47;;;6.31;89.03
72525;BME280;60547;48.502;8.996;2023-04-25T09:30:49;97461.97;;;6.28;88.53
72525;BME280;60547;48.502;8.996;2023-04-25T09:33:15;97477.47;;;6.22;90.35
72525;BME280;60547;48.502;8.996;2023-04-25T09:35:44;97495.50;;;6.30;87.47
72525;BME280;60547;48.502;8.996;2023-04-25T09:38:11;97499.81;;;6.31;88.45
72525;BME280;60547;48.502;8.996;2023-04-25T09:40:45;97491.59;;;6.27;88.17
72525;BME280;60547;48.502;8.996;2023-04-25T09:45:46;97516.50;;;6.24;86.89
72525;BME280;60547;48.502;8.996;2023-04-25T09:48:20;97527.56;;;6.24;86.94
72525;BME280;60547;48.502;8.996;2023-04-25T09:51:14;97533.81;;;6.28;86.91
72525;BME280;60547;48.502;8.996;2023-04-25T09:53:42;97518.16;;;5.87;85.80
72525;BME280;60547;48.502;8.996;2023-04-25T09:56:10;97542.75;;;6.08;85.95
72525;BME280;60547;48.502;8.996;2023-04-25T09:58:38;97539.38;;;5.97;85.63
72525;BME280;60547;48.502;8.996;2023-04-25T10:01:06;97528.78;;;5.92;85.46
72525;BME280;60547;48.502;8.996;2023-04-25T10:03:35;97545.63;;;6.01;85.91
72525;BME280;60547;48.502;8.996;2023-04-25T10:06:07;97539.72;;;5.99;86.34
72525;BME280;60547;48.502;8.996;2023-04-25T10:08:36;97531.91;;;5.94;87.39
72525;BME280;60547;48.502;8.996;2023-04-25T10:11:03;97528.66;;;5.69;87.99
72525;BME280;60547;48.502;8.996;2023-04-25T10:13:30;97510.91;;;5.70;87.72
72525;BME280;60547;48.502;8.996;2023-04-25T10:16:01;97559.38;;;6.05;86.58
72525;BME280;60547;48.502;8.996;2023-04-25T10:18:27;97559.56;;;5.91;86.20
72525;BME280;60547;48.502;8.996;2023-04-25T10:20:55;97558.69;;;5.97;87.04
72525;BME280;60547;48.502;8.996;2023-04-25T10:23:21;97551.59;;;5.96;86.68
72525;BME280;60547;48.502;8.996;2023-04-25T10:25:48;97559.97;;;5.89;86.10
72525;BME280;60547;48.502;8.996;2023-04-25T10:28:14;97545.41;;;5.85;86.97
72525;BME280;60547;48.502;8.996;2023-04-25T10:31:03;97565.78;;;5.98;84.80
72525;BME280;60547;48.502;8.996;2023-04-25T10:33:32;97560.56;;;6.04;85.64
72525;BME280;60547;48.502;8.996;2023-04-25T10:35:58;97552.97;;;6.11;85.57
72525;BME280;60547;48.502;8.996;2023-04-25T10:38:33;97555.28;;;6.17;84.33
72525;BME280;60547;48.502;8.996;2023-04-25T10:41:07;97563.94;;;6.19;86.52
72525;BME280;60547;48.502;8.996;2023-04-25T10:43:37;97566.38;;;6.40;85.33
72525;BME280;60547;48.502;8.996;2023-04-25T10:46:14;97534.53;;;6.32;85.56
72525;BME280;60547;48.502;8.996;2023-04-25T10:48:54;97555.69;;;6.42;84.75
72525;BME280;60547;48.502;8.996;2023-04-25T10:51:22;97554.06;;;6.18;85.85
72525;BME280;60547;48.502;8.996;2023-04-25T10:54:10;97583.22;;;6.49;86.07
72525;BME280;60547;48.502;8.996;2023-04-25T10:56:39;97581.97;;;6.27;83.97
72525;BME280;60547;48.502;8.996;2023-04-25T10:59:08;97583.53;;;6.28;84.08
72525;BME280;60547;48.502;8.996;2023-04-25T11:01:45;97579.16;;;6.30;84.77
72525;BME280;60547;48.502;8.996;2023-04-25T11:04:33;97576.75;;;6.32;85.54
72525;BME280;60547;48.502;8.996;2023-04-25T11:07:25;97592.16;;;6.33;84.23
72525;BME280;60547;48.502;8.996;2023-04-25T11:09:51;97564.81;;;6.12;85.47
72525;BME280;60547;48.502;8.996;2023-04-25T11:12:17;97601.53;;;6.39;85.91
72525;BME280;60547;48.502;8.996;2023-04-25T11:14:43;97591.22;;;6.43;85.59
72525;BME280;60547;48.502;8.996;2023-04-25T11:17:08;97583.16;;;6.26;85.50
72525;BME280;60547;48.502;8.996;2023-04-25T11:19:35;97607.03;;;6.12;85.17
72525;BME280;60547;48.502;8.996;2023-04-25T11:22:02;97588.00;;;6.18;85.43
72525;BME280;60547;48.502;8.996;2023-04-25T11:24:32;97589.53;;;6.23;85.31
72525;BME280;60547;48.502;8.996;2023-04-25T11:26:58;97585.72;;;6.40;86.07
72525;BME280;60547;48.502;8.996;2023-04-25T11:29:28;97601.38;;;6.50;84.17
72525;BME280;60547;48.502;8.996;2023-04-25T11:31:54;97581.56;;;6.55;85.08
72525;BME280;60547;48.502;8.996;2023-04-25T11:34:23;97577.44;;;6.67;83.09
72525;BME280;60547;48.502;8.996;2023-04-25T11:36:50;97583.47;;;6.85;83.18
72525;BME280;60547;48.502;8.996;2023-04-25T11:39:20;97587.44;;;6.84;84.73
72525;BME280;60547;48.502;8.996;2023-04-25T11:41:46;97592.06;;;6.91;85.26
72525;BME280;60547;48.502;8.996;2023-04-25T11:44:17;97585.09;;;6.83;83.01
72525;BME280;60547;48.502;8.996;2023-04-25T11:46:45;97589.94;;;6.75;84.95
72525;BME280;60547;48.502;8.996;2023-04-25T11:49:10;97587.81;;;7.09;85.41
72525;BME280;60547;48.502;8.996;2023-04-25T11:51:43;97579.81;;;7.15;85.08
72525;BME280;60547;48.502;8.996;2023-04-25T11:54:10;97593.50;;;7.45;85.13
72525;BME280;60547;48.502;8.996;2023-04-25T11:56:35;97584.25;;;7.32;84.00
72525;BME280;60547;48.502;8.996;2023-04-25T11:59:05;97591.91;;;7.01;84.42
72525;BME280;60547;48.502;8.996;2023-04-25T12:01:35;97604.81;;;7.31;85.40
72525;BME280;60547;48.502;8.996;2023-04-25T12:06:42;97604.44;;;7.53;82.79
72525;BME280;60547;48.502;8.996;2023-04-25T12:09:10;97591.94;;;7.44;82.28
72525;BME280;60547;48.502;8.996;2023-04-25T12:11:46;97599.69;;;7.53;82.59
72525;BME280;60547;48.502;8.996;2023-04-25T12:14:20;97593.31;;;7.56;83.39
72525;BME280;60547;48.502;8.996;2023-04-25T12:16:48;97599.47;;;7.64;83.76
72525;BME280;60547;48.502;8.996;2023-04-25T12:19:14;97615.97;;;7.71;84.17
72525;BME280;60547;48.502;8.996;2023-04-25T12:21:40;97606.44;;;7.72;84.24
72525;BME280;60547;48.502;8.996;2023-04-25T12:24:11;97598.06;;;7.56;85.17
72525;BME280;60547;48.502;8.996;2023-04-25T12:26:51;97613.97;;;7.71;85.35
72525;BME280;60547;48.502;8.996;2023-04-25T12:29:22;97616.03;;;7.67;85.06
72525;BME280;60547;48.502;8.996;2023-04-25T12:31:48;97623.91;;;7.69;84.32
72525;BME280;60547;48.502;8.996;2023-04-25T12:34:14;97611.34;;;7.64;84.51
72525;BME280;60547;48.502;8.996;2023-04-25T12:36:40;97619.81;;;7.77;84.88
72525;BME280;60547;48.502;8.996;2023-04-25T12:39:06;97618.72;;;7.71;84.37
72525;BME280;60547;48.502;8.996;2023-04-25T12:41:32;97614.28;;;7.77;84.86
72525;BME280;60547;48.502;8.996;2023-04-25T12:43:58;97614.78;;;7.92;86.73
72525;BME280;60547;48.502;8.996;2023-04-25T12:46:24;97623.94;;;8.08;87.46
72525;BME280;60547;48.502;8.996;2023-04-25T12:48:49;97623.16;;;8.28;87.31
72525;BME280;60547;48.502;8.996;2023-04-25T12:51:15;97614.56;;;8.42;86.22
72525;BME280;60547;48.502;8.996;2023-04-25T12:53:40;97615.84;;;9.06;82.82
72525;BME280;60547;48.502;8.996;2023-04-25T12:56:09;97617.25;;;8.98;83.18
72525;BME280;60547;48.502;8.996;2023-04-25T12:58:35;97604.56;;;8.97;84.88
72525;BME280;60547;48.502;8.996;2023-04-25T13:01:00;97612.28;;;9.05;83.67
72525;BME280;60547;48.502;8.996;2023-04-25T13:03:26;97618.09;;;8.79;86.33
72525;BME280;60547;48.502;8.996;2023-04-25T13:05:52;97636.66;;;8.82;83.32
72525;BME280;60547;48.502;8.996;2023-04-25T13:08:18;97626.56;;;8.71;83.42
72525;BME280;60547;48.502;8.996;2023-04-25T13:10:44;97627.41;;;8.13;84.59
72525;BME280;60547;48.502;8.996;2023-04-25T13:13:09;97612.94;;;8.05;80.26
72525;BME280;60547;48.502;8.996;2023-04-25T13:15:35;97634.72;;;8.23;84.09
72525;BME280;60547;48.502;8.996;2023-04-25T13:18:03;97615.59;;;8.28;84.73